Time,TemperatureF,DewpointF,PressureIn,WindDirection,WindDirectionDegrees,WindSpeedMPH,WindSpeedGustMPH,Humidity,HourlyPrecipIn,Conditions,Clouds,dailyrainin,SoftwareType,DateUTC
2013-02-05 00:00:00,22.2,20.2,30.33,ENE,63,1.0,3.0,92,0.00,,SKC,0.00,VWS V14.00,2013-02-05 07:00:00,
2013-02-05 00:03:00,22.1,18.0,30.33,ENE,63,1.0,2.0,84,0.00,,SKC,0.00,VWS V14.00,2013-02-05 07:03:00,
2013-02-05 00:08:00,21.9,18.1,30.33,ENE,63,0.0,2.0,85,0.00,,SKC,0.00,VWS V14.00,2013-02-05 07:08:00,
2013-02-05 00:13:00,21.8,18.3,30.33,ENE,63,0.0,2.0,86,0.00,,SKC,0.00,VWS V14.00,2013-02-05 07:13:00,
2013-02-05 00:19:00,21.5,17.7,30.34,ENE,63,0.0,2.0,85,0.00,,SKC,0.00,VWS V14.00,2013-02-05 07:19:00,
2013-02-05 00:24:00,21.3,17.8,30.34,ENE,63,0.0,2.0,86,0.00,,SKC,0.00,VWS V14.00,2013-02-05 07:24:00,
2013-02-05 00:29:00,21.3,18.0,30.34,ENE,63,0.0,2.0,87,0.00,,SKC,0.00,VWS V14.00,2013-02-05 07:29:00,
2013-02-05 00:30:00,21.3,18.0,30.34,ENE,63,0.0,2.0,87,0.00,,SKC,0.00,VWS V14.00,2013-02-05 07:30:00,
2013-02-05 00:34:00,21.3,18.0,30.34,ENE,63,0.0,0.0,87,0.00,,SKC,0.00,VWS V14.00,2013-02-05 07:34:00,
2013-02-05 00:39:00,21.3,18.0,30.34,ENE,63,0.0,0.0,87,0.00,,SKC,0.00,VWS V14.00,2013-02-05 07:39:00,
2013-02-05 00:45:00,21.2,17.7,30.34,ENE,63,0.0,2.0,86,0.00,,SKC,0.00,VWS V14.00,2013-02-05 07:45:00,
2013-02-05 00:50:00,21.0,17.8,30.34,ENE,63,0.0,2.0,87,0.00,,SKC,0.00,VWS V14.00,2013-02-05 07:50:00,
2013-02-05 00:55:00,20.8,17.5,30.33,ENE,63,0.0,2.0,87,0.00,,SKC,0.00,VWS V14.00,2013-02-05 07:55:00,
2013-02-05 01:00:00,20.6,17.4,30.33,ENE,63,0.0,2.0,87,0.00,,SKC,0.00,VWS V14.00,2013-02-05 08:00:00,
2013-02-05 01:05:00,20.4,17.2,30.34,ENE,63,0.0,0.0,87,0.00,,SKC,0.00,VWS V14.00,2013-02-05 08:05:00,
2013-02-05 01:11:00,20.4,17.4,30.34,ENE,63,0.0,2.0,88,0.00,,SKC,0.00,VWS V14.00,2013-02-05 08:11:00,
2013-02-05 01:16:00,20.3,17.1,30.34,ENE,63,0.0,2.0,87,0.00,,SKC,0.00,VWS V14.00,2013-02-05 08:16:00,
2013-02-05 01:21:00,19.9,16.7,30.34,ENE,63,0.0,2.0,87,0.00,,SKC,0.00,VWS V14.00,2013-02-05 08:21:00,
2013-02-05 01:26:00,19.8,16.6,30.34,ENE,63,0.0,2.0,87,0.00,,SKC,0.00,VWS V14.00,2013-02-05 08:26:00,
2013-02-05 01:30:00,19.6,16.4,30.35,ENE,63,0.0,2.0,87,0.00,,SKC,0.00,VWS V14.00,2013-02-05 08:30:00,
2013-02-05 01:32:00,19.7,16.5,30.35,ENE,63,0.0,2.0,87,0.00,,SKC,0.00,VWS V14.00,2013-02-05 08:32:00,
2013-02-05 01:37:00,19.5,16.5,30.34,ENE,63,1.0,2.0,88,0.00,,SKC,0.00,VWS V14.00,2013-02-05 08:37:00,
2013-02-05 01:42:00,19.1,15.9,30.35,ENE,63,1.0,2.0,87,0.00,,SKC,0.00,VWS V14.00,2013-02-05 08:42:00,
2013-02-05 01:47:00,18.8,15.8,30.34,ENE,63,0.0,2.0,88,0.00,,SKC,0.00,VWS V14.00,2013-02-05 08:47:00,
2013-02-05 01:52:00,18.8,16.1,30.34,ENE,63,0.0,2.0,89,0.00,,SKC,0.00,VWS V14.00,2013-02-05 08:52:00,
2013-02-05 01:58:00,18.7,16.0,30.34,ENE,63,0.0,2.0,89,0.00,,SKC,0.00,VWS V14.00,2013-02-05 08:58:00,
2013-02-05 02:00:00,18.2,15.2,30.34,ENE,63,2.0,2.0,88,0.00,,SKC,0.00,VWS V14.00,2013-02-05 09:00:00,
2013-02-05 02:03:00,18.1,15.1,30.35,ENE,63,0.0,2.0,88,0.00,,SKC,0.00,VWS V14.00,2013-02-05 09:03:00,
2013-02-05 02:08:00,17.9,14.9,30.35,ENE,63,0.0,2.0,88,0.00,,SKC,0.00,VWS V14.00,2013-02-05 09:08:00,
2013-02-05 02:13:00,17.6,14.7,30.35,ENE,63,0.0,2.0,88,0.00,,SKC,0.00,VWS V14.00,2013-02-05 09:13:00,
2013-02-05 02:18:00,17.5,14.8,30.35,ENE,63,0.0,2.0,89,0.00,,SKC,0.00,VWS V14.00,2013-02-05 09:18:00,
2013-02-05 02:24:00,17.5,15.1,30.35,ENE,63,0.0,2.0,90,0.00,,SKC,0.00,VWS V14.00,2013-02-05 09:24:00,
2013-02-05 02:29:00,17.5,15.1,30.35,ENE,63,0.0,2.0,90,0.00,,SKC,0.00,VWS V14.00,2013-02-05 09:29:00,
2013-02-05 02:30:00,17.5,15.1,30.35,ENE,63,0.0,2.0,90,0.00,,SKC,0.00,VWS V14.00,2013-02-05 09:30:00,
2013-02-05 02:34:00,17.5,15.1,30.35,ENE,63,0.0,0.0,90,0.00,,SKC,0.00,VWS V14.00,2013-02-05 09:34:00,
2013-02-05 02:39:00,17.5,15.1,30.35,ENE,63,0.0,0.0,90,0.00,,SKC,0.00,VWS V14.00,2013-02-05 09:39:00,
2013-02-05 02:44:00,17.2,14.8,30.35,ENE,63,1.0,1.0,90,0.00,,SKC,0.00,VWS V14.00,2013-02-05 09:44:00,
2013-02-05 02:50:00,17.0,14.6,30.35,ENE,63,1.0,2.0,90,0.00,,SKC,0.00,VWS V14.00,2013-02-05 09:50:00,
2013-02-05 02:55:00,16.8,14.1,30.35,ENE,63,0.0,2.0,89,0.00,,SKC,0.00,VWS V14.00,2013-02-05 09:55:00,
2013-02-05 03:00:00,16.6,13.9,30.35,ENE,63,2.0,2.0,89,0.00,,SKC,0.00,VWS V14.00,2013-02-05 10:00:00,
2013-02-05 03:05:00,16.4,14.0,30.35,ENE,63,1.0,2.0,90,0.00,,SKC,0.00,VWS V14.00,2013-02-05 10:05:00,
2013-02-05 03:10:00,16.6,14.4,30.34,ENE,63,0.0,2.0,91,0.00,,SKC,0.00,VWS V14.00,2013-02-05 10:10:00,
2013-02-05 03:16:00,16.7,14.5,30.34,ENE,63,0.0,2.0,91,0.00,,SKC,0.00,VWS V14.00,2013-02-05 10:16:00,
2013-02-05 03:21:00,16.6,14.4,30.34,ENE,63,0.0,2.0,91,0.00,,SKC,0.00,VWS V14.00,2013-02-05 10:21:00,
2013-02-05 03:26:00,16.4,14.0,30.34,ENE,63,0.0,2.0,90,0.00,,SKC,0.00,VWS V14.00,2013-02-05 10:26:00,
2013-02-05 03:30:00,16.4,14.0,30.34,ENE,63,2.0,2.0,90,0.00,,SKC,0.00,VWS V14.00,2013-02-05 10:30:00,
2013-02-05 03:31:00,16.4,14.0,30.34,ENE,63,0.0,2.0,90,0.00,,SKC,0.00,VWS V14.00,2013-02-05 10:31:00,
2013-02-05 03:36:00,16.5,14.3,30.34,ENE,63,0.0,3.0,91,0.00,,SKC,0.00,VWS V14.00,2013-02-05 10:36:00,
2013-02-05 03:42:00,16.7,14.5,30.34,ENE,63,0.0,3.0,91,0.00,,SKC,0.00,VWS V14.00,2013-02-05 10:42:00,
2013-02-05 03:47:00,16.6,14.2,30.34,ENE,63,0.0,3.0,90,0.00,,SKC,0.00,VWS V14.00,2013-02-05 10:47:00,
2013-02-05 03:52:00,16.4,13.7,30.34,ENE,63,0.0,3.0,89,0.00,,SKC,0.00,VWS V14.00,2013-02-05 10:52:00,
2013-02-05 03:58:00,16.0,13.3,30.34,ENE,63,0.0,3.0,89,0.00,,SKC,0.00,VWS V14.00,2013-02-05 10:58:00,
2013-02-05 04:00:00,15.8,13.1,30.34,ENE,63,0.0,3.0,89,0.00,,SKC,0.00,VWS V14.00,2013-02-05 11:00:00,
2013-02-05 04:03:00,15.8,13.1,30.34,ENE,63,0.0,0.0,89,0.00,,SKC,0.00,VWS V14.00,2013-02-05 11:03:00,
2013-02-05 04:08:00,15.6,13.2,30.34,ENE,63,0.0,0.0,90,0.00,,SKC,0.00,VWS V14.00,2013-02-05 11:08:00,
2013-02-05 04:13:00,15.5,13.1,30.34,ENE,63,0.0,0.0,90,0.00,,SKC,0.00,VWS V14.00,2013-02-05 11:13:00,
2013-02-05 04:19:00,15.4,13.2,30.34,ENE,63,0.0,0.0,91,0.00,,SKC,0.00,VWS V14.00,2013-02-05 11:19:00,
2013-02-05 04:24:00,15.3,13.1,30.34,ENE,63,0.0,1.0,91,0.00,,SKC,0.00,VWS V14.00,2013-02-05 11:24:00,
2013-02-05 04:29:00,15.1,12.7,30.35,ENE,63,0.0,1.0,90,0.00,,SKC,0.00,VWS V14.00,2013-02-05 11:29:00,
2013-02-05 04:30:00,15.1,12.7,30.35,ENE,63,0.0,1.0,90,0.00,,SKC,0.00,VWS V14.00,2013-02-05 11:30:00,
2013-02-05 04:34:00,15.0,12.9,30.34,ENE,63,0.0,0.0,91,0.00,,SKC,0.00,VWS V14.00,2013-02-05 11:34:00,
2013-02-05 04:39:00,15.1,12.9,30.34,ENE,63,0.0,1.0,91,0.00,,SKC,0.00,VWS V14.00,2013-02-05 11:39:00,
2013-02-05 04:45:00,15.0,12.9,30.34,ENE,63,0.0,1.0,91,0.00,,SKC,0.00,VWS V14.00,2013-02-05 11:45:00,
2013-02-05 04:50:00,15.2,13.3,30.34,ENE,63,0.0,1.0,92,0.00,,SKC,0.00,VWS V14.00,2013-02-05 11:50:00,
2013-02-05 04:55:00,15.2,13.1,30.34,ENE,63,2.0,3.0,91,0.00,,SKC,0.00,VWS V14.00,2013-02-05 11:55:00,
2013-02-05 05:00:00,14.9,12.8,30.34,ENE,63,0.0,3.0,91,0.00,,SKC,0.00,VWS V14.00,2013-02-05 12:00:00,
2013-02-05 05:05:00,14.9,12.8,30.34,ENE,63,0.0,0.0,91,0.00,,SKC,0.00,VWS V14.00,2013-02-05 12:05:00,
2013-02-05 05:11:00,15.2,13.3,30.34,ENE,63,0.0,0.0,92,0.00,,SKC,0.00,VWS V14.00,2013-02-05 12:11:00,
2013-02-05 05:16:00,15.2,13.3,30.34,ENE,63,0.0,1.0,92,0.00,,SKC,0.00,VWS V14.00,2013-02-05 12:16:00,
2013-02-05 05:21:00,15.1,12.9,30.34,ENE,63,0.0,1.0,91,0.00,,SKC,0.00,VWS V14.00,2013-02-05 12:21:00,
2013-02-05 05:26:00,14.7,12.3,30.35,ENE,63,0.0,1.0,90,0.00,,SKC,0.00,VWS V14.00,2013-02-05 12:26:00,
2013-02-05 05:30:00,14.7,12.8,30.34,ENE,63,0.0,1.0,92,0.00,,SKC,0.00,VWS V14.00,2013-02-05 12:30:00,
2013-02-05 05:32:00,14.7,12.6,30.35,ENE,63,0.0,1.0,91,0.00,,SKC,0.00,VWS V14.00,2013-02-05 12:32:00,
2013-02-05 05:37:00,14.6,12.5,30.35,ENE,63,0.0,2.0,91,0.00,,SKC,0.00,VWS V14.00,2013-02-05 12:37:00,
2013-02-05 05:42:00,14.5,12.4,30.34,ENE,63,0.0,2.0,91,0.00,,SKC,0.00,VWS V14.00,2013-02-05 12:42:00,
2013-02-05 05:47:00,14.3,12.2,30.34,ENE,63,0.0,2.0,91,0.00,,SKC,0.00,VWS V14.00,2013-02-05 12:47:00,
2013-02-05 05:52:00,14.3,12.4,30.34,ENE,63,0.0,2.0,92,0.00,,SKC,0.00,VWS V14.00,2013-02-05 12:52:00,
2013-02-05 05:58:00,14.4,12.3,30.34,ENE,63,0.0,2.0,91,0.00,,SKC,0.00,VWS V14.00,2013-02-05 12:58:00,
2013-02-05 06:00:00,14.3,12.2,30.34,ENE,63,0.0,2.0,91,0.00,,SKC,0.00,VWS V14.00,2013-02-05 13:00:00,
2013-02-05 06:03:00,14.2,11.8,30.34,ENE,63,0.0,0.0,90,0.00,,SKC,0.00,VWS V14.00,2013-02-05 13:03:00,
2013-02-05 06:08:00,14.0,11.6,30.35,ENE,63,0.0,0.0,90,0.00,,SKC,0.00,VWS V14.00,2013-02-05 13:08:00,
2013-02-05 06:13:00,14.2,12.3,30.35,ENE,63,0.0,0.0,92,0.00,,SKC,0.00,VWS V14.00,2013-02-05 13:13:00,
2013-02-05 06:19:00,14.3,12.2,30.35,ENE,63,0.0,0.0,91,0.00,,SKC,0.00,VWS V14.00,2013-02-05 13:19:00,
2013-02-05 06:24:00,14.0,11.6,30.35,ENE,63,0.0,0.0,90,0.00,,SKC,0.00,VWS V14.00,2013-02-05 13:24:00,
2013-02-05 06:29:00,13.5,11.1,30.35,ENE,63,0.0,0.0,90,0.00,,SKC,0.00,VWS V14.00,2013-02-05 13:29:00,
2013-02-05 06:30:00,13.4,11.0,30.35,ENE,63,0.0,0.0,90,0.00,,SKC,0.00,VWS V14.00,2013-02-05 13:30:00,
2013-02-05 06:34:00,13.4,11.0,30.36,ENE,63,1.0,2.0,90,0.00,,SKC,0.00,VWS V14.00,2013-02-05 13:34:00,
2013-02-05 06:40:00,13.4,11.0,30.36,ENE,63,0.0,2.0,90,0.00,,SKC,0.00,VWS V14.00,2013-02-05 13:40:00,
2013-02-05 06:45:00,13.2,11.1,30.36,ENE,63,1.0,2.0,91,0.00,,SKC,0.00,VWS V14.00,2013-02-05 13:45:00,
2013-02-05 06:50:00,13.3,11.4,30.36,ENE,63,1.0,2.0,92,0.00,,SKC,0.00,VWS V14.00,2013-02-05 13:50:00,
2013-02-05 06:55:00,13.2,11.1,30.36,ENE,63,2.0,2.0,91,0.00,,SKC,0.00,VWS V14.00,2013-02-05 13:55:00,
2013-02-05 07:00:00,12.8,10.4,30.37,ENE,63,0.0,2.0,90,0.00,,SKC,0.00,VWS V14.00,2013-02-05 14:00:00,
2013-02-05 07:01:00,13.0,10.6,30.37,ENE,63,0.0,2.0,90,0.00,,SKC,0.00,VWS V14.00,2013-02-05 14:01:00,
2013-02-05 07:06:00,12.7,10.3,30.37,ENE,63,0.0,2.0,90,0.00,,SKC,0.00,VWS V14.00,2013-02-05 14:06:00,
2013-02-05 07:11:00,12.7,10.6,30.38,ENE,63,0.0,2.0,91,0.00,,SKC,0.00,VWS V14.00,2013-02-05 14:11:00,
2013-02-05 07:16:00,12.9,11.0,30.37,ENE,63,0.0,2.0,92,0.00,,SKC,0.00,VWS V14.00,2013-02-05 14:16:00,
2013-02-05 07:21:00,13.1,11.2,30.38,ENE,63,0.0,2.0,92,0.00,,SKC,0.00,VWS V14.00,2013-02-05 14:21:00,
2013-02-05 07:27:00,13.2,11.3,30.37,ENE,63,0.0,2.0,92,0.00,,SKC,0.00,VWS V14.00,2013-02-05 14:27:00,
2013-02-05 07:30:00,13.4,11.5,30.37,ENE,63,0.0,2.0,92,0.00,,SKC,0.00,VWS V14.00,2013-02-05 14:30:00,
2013-02-05 07:32:00,13.4,11.5,30.37,ENE,63,0.0,2.0,92,0.00,,SKC,0.00,VWS V14.00,2013-02-05 14:32:00,
2013-02-05 07:37:00,13.7,12.1,30.37,ENE,63,0.0,0.0,93,0.00,,SKC,0.00,VWS V14.00,2013-02-05 14:37:00,
2013-02-05 07:42:00,13.5,11.4,30.36,ENE,63,1.0,2.0,91,0.00,,SKC,0.00,VWS V14.00,2013-02-05 14:42:00,
2013-02-05 07:47:00,13.2,11.1,30.35,ENE,63,0.0,2.0,91,0.00,,SKC,0.00,VWS V14.00,2013-02-05 14:47:00,
2013-02-05 07:53:00,13.0,10.6,30.35,ENE,63,1.0,2.0,90,0.00,,SKC,0.00,VWS V14.00,2013-02-05 14:53:00,
2013-02-05 07:58:00,13.1,11.0,30.36,ENE,63,0.0,2.0,91,0.00,,SKC,0.00,VWS V14.00,2013-02-05 14:58:00,
2013-02-05 08:00:00,12.8,10.4,30.36,ENE,63,0.0,2.0,90,0.00,,SKC,0.00,VWS V14.00,2013-02-05 15:00:00,
2013-02-05 08:03:00,12.8,10.4,30.36,ENE,63,0.0,0.0,90,0.00,,SKC,0.00,VWS V14.00,2013-02-05 15:03:00,
2013-02-05 08:08:00,12.8,10.4,30.36,ENE,63,0.0,0.0,90,0.00,,SKC,0.00,VWS V14.00,2013-02-05 15:08:00,
2013-02-05 08:14:00,12.7,10.6,30.37,ENE,63,0.0,0.0,91,0.00,,SKC,0.00,VWS V14.00,2013-02-05 15:14:00,
2013-02-05 08:19:00,13.0,11.1,30.36,ENE,63,0.0,0.0,92,0.00,,SKC,0.00,VWS V14.00,2013-02-05 15:19:00,
2013-02-05 08:24:00,13.4,11.5,30.36,ENE,63,0.0,0.0,92,0.00,,SKC,0.00,VWS V14.00,2013-02-05 15:24:00,
2013-02-05 08:29:00,13.6,11.5,30.36,ENE,63,0.0,2.0,91,0.00,,SKC,0.00,VWS V14.00,2013-02-05 15:29:00,
2013-02-05 08:30:00,13.4,11.0,30.36,ENE,63,1.0,2.0,90,0.00,,SKC,0.00,VWS V14.00,2013-02-05 15:30:00,
2013-02-05 08:35:00,13.1,10.5,30.36,ENE,63,2.0,2.0,89,0.00,,SKC,0.00,VWS V14.00,2013-02-05 15:35:00,
2013-02-05 08:40:00,13.1,11.0,30.36,ENE,63,0.0,2.0,91,0.00,,SKC,0.00,VWS V14.00,2013-02-05 15:40:00,
2013-02-05 08:45:00,13.7,11.8,30.36,ENE,63,0.0,2.0,92,0.00,,SKC,0.00,VWS V14.00,2013-02-05 15:45:00,
2013-02-05 08:50:00,14.4,13.0,30.35,ENE,63,0.0,2.0,94,0.00,,SKC,0.00,VWS V14.00,2013-02-05 15:50:00,
2013-02-05 08:56:00,14.8,13.1,30.34,ENE,63,0.0,2.0,93,0.00,,SKC,0.00,VWS V14.00,2013-02-05 15:56:00,
2013-02-05 09:00:00,15.3,13.6,30.34,ENE,63,1.0,2.0,93,0.00,,SKC,0.00,VWS V14.00,2013-02-05 16:00:00,
2013-02-05 09:01:00,15.2,13.5,30.34,ENE,63,0.0,2.0,93,0.00,,SKC,0.00,VWS V14.00,2013-02-05 16:01:00,
2013-02-05 09:06:00,15.2,13.3,30.34,ENE,63,0.0,2.0,92,0.00,,SKC,0.00,VWS V14.00,2013-02-05 16:06:00,
2013-02-05 09:14:00,15.5,13.8,30.34,ENE,63,0.0,0.0,93,0.00,,SKC,0.00,VWS V14.00,2013-02-05 16:14:00,
2013-02-05 09:19:00,16.2,14.8,30.34,SE,146,2.0,4.0,94,0.00,,SKC,0.00,VWS V14.00,2013-02-05 16:19:00,
2013-02-05 09:24:00,18.0,16.8,30.34,SSE,150,1.0,6.0,95,0.00,,SKC,0.00,VWS V14.00,2013-02-05 16:24:00,
2013-02-05 09:29:00,19.8,18.4,30.34,SE,128,1.0,6.0,94,0.00,,SKC,0.00,VWS V14.00,2013-02-05 16:29:00,
2013-02-05 09:35:00,21.1,18.9,30.34,SE,126,0.0,0.0,91,0.00,,SKC,0.00,VWS V14.00,2013-02-05 16:35:00,
2013-02-05 09:40:00,21.7,19.2,30.33,SE,126,0.0,2.0,90,0.00,,SKC,0.00,VWS V14.00,2013-02-05 16:40:00,
2013-02-05 09:45:00,22.1,19.9,30.33,SE,126,0.0,2.0,91,0.00,,SKC,0.00,VWS V14.00,2013-02-05 16:45:00,
2013-02-05 09:50:00,22.3,19.8,30.33,SE,126,0.0,2.0,90,0.00,,SKC,0.00,VWS V14.00,2013-02-05 16:50:00,
2013-02-05 09:56:00,22.6,19.9,30.33,SE,126,0.0,2.0,89,0.00,,SKC,0.00,VWS V14.00,2013-02-05 16:56:00,
2013-02-05 10:01:00,22.8,19.5,30.33,SE,126,0.0,2.0,87,0.00,,SKC,0.00,VWS V14.00,2013-02-05 17:01:00,
2013-02-05 10:06:00,23.2,19.6,30.33,SE,126,0.0,0.0,86,0.00,,SKC,0.00,VWS V14.00,2013-02-05 17:06:00,
2013-02-05 10:11:00,24.1,21.1,30.34,SE,126,0.0,0.0,88,0.00,,SKC,0.00,VWS V14.00,2013-02-05 17:11:00,
2013-02-05 10:17:00,25.5,22.2,30.33,SE,126,0.0,0.0,87,0.00,,SKC,0.00,VWS V14.00,2013-02-05 17:17:00,
2013-02-05 10:22:00,27.1,22.1,30.33,SE,126,0.0,0.0,81,0.00,,SKC,0.00,VWS V14.00,2013-02-05 17:22:00,
2013-02-05 10:27:00,28.8,22.2,30.33,SE,126,0.0,0.0,76,0.00,,SKC,0.00,VWS V14.00,2013-02-05 17:27:00,
2013-02-05 10:32:00,30.0,21.1,30.33,SE,126,1.0,2.0,69,0.00,,SKC,0.00,VWS V14.00,2013-02-05 17:32:00,
2013-02-05 10:37:00,30.5,20.5,30.32,SSE,161,2.0,4.0,66,0.00,,SKC,0.00,VWS V14.00,2013-02-05 17:37:00,
2013-02-05 10:43:00,30.6,20.2,30.32,SSE,162,2.0,5.0,65,0.00,,SKC,0.00,VWS V14.00,2013-02-05 17:43:00,
2013-02-05 10:48:00,31.0,20.6,30.32,SSE,162,1.0,5.0,65,0.00,,SKC,0.00,VWS V14.00,2013-02-05 17:48:00,
2013-02-05 10:53:00,31.5,20.7,30.31,SSE,155,4.0,7.0,64,0.00,,SKC,0.00,VWS V14.00,2013-02-05 17:53:00,
2013-02-05 10:58:00,31.9,21.1,30.31,SSE,155,4.0,7.0,64,0.00,,SKC,0.00,VWS V14.00,2013-02-05 17:58:00,
2013-02-05 11:04:00,32.4,21.2,30.31,SSE,150,2.0,6.0,63,0.00,,SKC,0.00,VWS V14.00,2013-02-05 18:04:00,
2013-02-05 11:09:00,33.0,21.4,30.31,SSE,168,1.0,7.0,62,0.00,,SKC,0.00,VWS V14.00,2013-02-05 18:09:00,
2013-02-05 11:14:00,33.4,21.8,30.31,South,169,2.0,7.0,62,0.00,,SKC,0.00,VWS V14.00,2013-02-05 18:14:00,
2013-02-05 11:19:00,34.3,22.3,30.31,SSE,167,0.0,7.0,61,0.00,,SKC,0.00,VWS V14.00,2013-02-05 18:19:00,
2013-02-05 11:25:00,35.2,22.3,30.31,South,173,2.0,7.0,59,0.00,,SKC,0.00,VWS V14.00,2013-02-05 18:25:00,
2013-02-05 11:30:00,35.6,21.9,30.31,SSE,162,1.0,7.0,57,0.00,,SKC,0.00,VWS V14.00,2013-02-05 18:30:00,
2013-02-05 11:35:00,36.0,21.8,30.29,SSE,164,2.0,5.0,56,0.00,,SKC,0.00,VWS V14.00,2013-02-05 18:35:00,
2013-02-05 11:40:00,36.2,21.6,30.29,SSE,167,2.0,7.0,55,0.00,,SKC,0.00,VWS V14.00,2013-02-05 18:40:00,
2013-02-05 11:45:00,36.6,22.0,30.29,SSE,168,2.0,7.0,55,0.00,,SKC,0.00,VWS V14.00,2013-02-05 18:45:00,
2013-02-05 11:51:00,36.9,21.8,30.28,South,169,4.0,7.0,54,0.00,,SKC,0.00,VWS V14.00,2013-02-05 18:51:00,
2013-02-05 11:56:00,37.4,21.9,30.28,South,180,4.0,7.0,53,0.00,,SKC,0.00,VWS V14.00,2013-02-05 18:56:00,
2013-02-05 12:01:00,37.9,21.9,30.27,SSW,196,3.0,7.0,52,0.00,,SKC,0.00,VWS V14.00,2013-02-05 19:01:00,
2013-02-05 12:06:00,38.5,22.0,30.27,South,180,4.0,5.0,51,0.00,,SKC,0.00,VWS V14.00,2013-02-05 19:06:00,
2013-02-05 12:12:00,38.8,22.7,30.27,South,185,1.0,5.0,52,0.00,,SKC,0.00,VWS V14.00,2013-02-05 19:12:00,
2013-02-05 12:17:00,38.8,21.8,30.26,SSW,205,4.0,6.0,50,0.00,,SKC,0.00,VWS V14.00,2013-02-05 19:17:00,
2013-02-05 12:22:00,38.7,21.7,30.26,SSW,211,2.0,6.0,50,0.00,,SKC,0.00,VWS V14.00,2013-02-05 19:22:00,
2013-02-05 12:28:00,38.8,21.8,30.26,SSW,205,4.0,6.0,50,0.00,,SKC,0.00,VWS V14.00,2013-02-05 19:28:00,
2013-02-05 12:33:00,39.0,21.5,30.25,SW,221,2.0,6.0,49,0.00,,SKC,0.00,VWS V14.00,2013-02-05 19:33:00,
2013-02-05 12:38:00,39.3,21.8,30.25,SSW,198,1.0,6.0,49,0.00,,SKC,0.00,VWS V14.00,2013-02-05 19:38:00,
2013-02-05 12:43:00,39.7,21.6,30.25,SSW,205,2.0,6.0,48,0.00,,SKC,0.00,VWS V14.00,2013-02-05 19:43:00,
2013-02-05 12:49:00,40.1,21.5,30.25,SSW,207,5.0,6.0,47,0.00,,SKC,0.00,VWS V14.00,2013-02-05 19:49:00,
2013-02-05 12:54:00,40.4,21.8,30.24,SSW,194,3.0,6.0,47,0.00,,SKC,0.00,VWS V14.00,2013-02-05 19:54:00,
2013-02-05 12:59:00,40.8,21.6,30.24,SSW,206,2.0,6.0,46,0.00,,SKC,0.00,VWS V14.00,2013-02-05 19:59:00,
2013-02-05 13:05:00,40.9,21.7,30.23,SSW,196,3.0,5.0,46,0.00,,SKC,0.00,VWS V14.00,2013-02-05 20:05:00,
2013-02-05 13:10:00,41.1,21.9,30.23,SSW,211,3.0,7.0,46,0.00,,SKC,0.00,VWS V14.00,2013-02-05 20:10:00,
2013-02-05 13:15:00,41.3,22.6,30.22,SSW,197,3.0,7.0,47,0.00,,SKC,0.00,VWS V14.00,2013-02-05 20:15:00,
2013-02-05 13:20:00,41.5,22.3,30.22,SSW,192,3.0,7.0,46,0.00,,SKC,0.00,VWS V14.00,2013-02-05 20:20:00,
2013-02-05 13:26:00,41.8,22.5,30.22,SSW,207,3.0,7.0,46,0.00,,SKC,0.00,VWS V14.00,2013-02-05 20:26:00,
2013-02-05 13:31:00,42.0,22.2,30.21,SSW,210,3.0,7.0,45,0.00,,SKC,0.00,VWS V14.00,2013-02-05 20:31:00,
2013-02-05 13:36:00,42.2,22.4,30.21,SSW,213,1.0,5.0,45,0.00,,SKC,0.00,VWS V14.00,2013-02-05 20:36:00,
2013-02-05 13:41:00,42.5,22.7,30.21,SSW,201,3.0,5.0,45,0.00,,SKC,0.00,VWS V14.00,2013-02-05 20:41:00,
2013-02-05 13:47:00,42.9,23.6,30.21,SSW,203,1.0,5.0,46,0.00,,SKC,0.00,VWS V14.00,2013-02-05 20:47:00,
2013-02-05 13:52:00,43.4,24.0,30.20,SSW,205,3.0,5.0,46,0.00,,SKC,0.00,VWS V14.00,2013-02-05 20:52:00,
2013-02-05 13:57:00,43.8,23.3,30.20,SSW,205,1.0,5.0,44,0.00,,SKC,0.00,VWS V14.00,2013-02-05 20:57:00,
2013-02-05 14:03:00,44.1,22.5,30.20,SSW,205,3.0,4.0,42,0.00,,SKC,0.00,VWS V14.00,2013-02-05 21:03:00,
2013-02-05 14:08:00,44.4,22.8,30.19,South,176,0.0,5.0,42,0.00,,SKC,0.00,VWS V14.00,2013-02-05 21:08:00,
2013-02-05 14:13:00,44.6,22.9,30.19,South,178,2.0,5.0,42,0.00,,SKC,0.00,VWS V14.00,2013-02-05 21:13:00,
2013-02-05 14:18:00,44.9,22.6,30.18,South,176,0.0,5.0,41,0.00,,SKC,0.00,VWS V14.00,2013-02-05 21:18:00,
2013-02-05 14:24:00,45.4,23.1,30.18,South,176,0.0,5.0,41,0.00,,SKC,0.00,VWS V14.00,2013-02-05 21:24:00,
2013-02-05 14:29:00,45.9,22.4,30.17,South,176,0.0,5.0,39,0.00,,SKC,0.00,VWS V14.00,2013-02-05 21:29:00,
2013-02-05 14:34:00,46.3,23.3,30.17,South,176,2.0,4.0,40,0.00,,SKC,0.00,VWS V14.00,2013-02-05 21:34:00,
2013-02-05 14:39:00,46.5,22.9,30.16,South,176,2.0,5.0,39,0.00,,SKC,0.00,VWS V14.00,2013-02-05 21:39:00,
2013-02-05 14:45:00,46.7,23.1,30.16,South,190,0.0,5.0,39,0.00,,SKC,0.00,VWS V14.00,2013-02-05 21:45:00,
2013-02-05 14:50:00,46.8,22.5,30.16,SSW,195,2.0,5.0,38,0.00,,SKC,0.00,VWS V14.00,2013-02-05 21:50:00,
2013-02-05 14:55:00,46.7,22.5,30.15,South,190,4.0,5.0,38,0.00,,SKC,0.00,VWS V14.00,2013-02-05 21:55:00,
2013-02-05 15:01:00,46.5,22.9,30.16,South,190,0.0,5.0,39,0.00,,SKC,0.00,VWS V14.00,2013-02-05 22:01:00,
2013-02-05 15:06:00,46.7,23.1,30.16,South,189,3.0,3.0,39,0.00,,SKC,0.00,VWS V14.00,2013-02-05 22:06:00,
2013-02-05 15:11:00,46.8,23.8,30.15,SSE,165,4.0,5.0,40,0.00,,SKC,0.00,VWS V14.00,2013-02-05 22:11:00,
2013-02-05 15:16:00,46.8,23.8,30.15,South,181,3.0,6.0,40,0.00,,SKC,0.00,VWS V14.00,2013-02-05 22:16:00,
2013-02-05 15:22:00,46.6,24.8,30.15,SSW,209,2.0,6.0,42,0.00,,SKC,0.00,VWS V14.00,2013-02-05 22:22:00,
2013-02-05 15:27:00,46.7,24.3,30.15,SSW,195,3.0,6.0,41,0.00,,SKC,0.00,VWS V14.00,2013-02-05 22:27:00,
2013-02-05 15:32:00,46.6,24.2,30.15,South,169,6.0,6.0,41,0.00,,SKC,0.00,VWS V14.00,2013-02-05 22:32:00,
2013-02-05 15:37:00,46.3,23.9,30.14,South,180,3.0,6.0,41,0.00,,SKC,0.00,VWS V14.00,2013-02-05 22:37:00,
2013-02-05 15:43:00,46.3,23.9,30.14,South,186,2.0,6.0,41,0.00,,SKC,0.00,VWS V14.00,2013-02-05 22:43:00,
2013-02-05 15:48:00,46.3,23.9,30.14,SW,215,2.0,6.0,41,0.00,,SKC,0.00,VWS V14.00,2013-02-05 22:48:00,
2013-02-05 15:53:00,46.4,24.0,30.14,South,174,2.0,6.0,41,0.00,,SKC,0.00,VWS V14.00,2013-02-05 22:53:00,
2013-02-05 15:58:00,46.4,24.0,30.14,SSE,157,2.0,7.0,41,0.00,,SKC,0.00,VWS V14.00,2013-02-05 22:58:00,
2013-02-05 16:04:00,46.4,26.8,30.14,SSE,167,2.0,2.0,46,0.00,,SKC,0.00,VWS V14.00,2013-02-05 23:04:00,
2013-02-05 16:09:00,46.3,25.0,30.13,SSE,167,1.0,5.0,43,0.00,,SKC,0.00,VWS V14.00,2013-02-05 23:09:00,
2013-02-05 16:14:00,46.1,23.7,30.13,SSE,168,5.0,6.0,41,0.00,,SKC,0.00,VWS V14.00,2013-02-05 23:14:00,
2013-02-05 16:20:00,46.1,24.9,30.13,SSE,168,0.0,6.0,43,0.00,,SKC,0.00,VWS V14.00,2013-02-05 23:20:00,
2013-02-05 16:25:00,46.0,26.4,30.13,SSE,155,1.0,6.0,46,0.00,,SKC,0.00,VWS V14.00,2013-02-05 23:25:00,
2013-02-05 16:30:00,45.9,25.8,30.13,SSE,155,0.0,6.0,45,0.00,,SKC,0.00,VWS V14.00,2013-02-05 23:30:00,
2013-02-05 16:35:00,45.7,27.6,30.13,SSE,155,0.0,2.0,49,0.00,,SKC,0.00,VWS V14.00,2013-02-05 23:35:00,
2013-02-05 16:41:00,45.0,28.5,30.13,SE,130,4.0,4.0,52,0.00,,SKC,0.00,VWS V14.00,2013-02-05 23:41:00,
2013-02-05 16:46:00,42.2,27.6,30.13,NE,52,3.0,4.0,56,0.00,,SKC,0.00,VWS V14.00,2013-02-05 23:46:00,
2013-02-05 16:51:00,40.3,27.5,30.13,NE,52,0.0,4.0,60,0.00,,SKC,0.00,VWS V14.00,2013-02-05 23:51:00,
2013-02-05 16:57:00,38.9,27.8,30.13,NE,52,2.0,4.0,64,0.00,,SKC,0.00,VWS V14.00,2013-02-05 23:57:00,
2013-02-05 17:02:00,37.5,27.5,30.13,NE,52,0.0,4.0,67,0.00,,SKC,0.00,VWS V14.00,2013-02-06 00:02:00,
2013-02-05 17:07:00,36.5,27.7,30.13,NE,52,0.0,3.0,70,0.00,,SKC,0.00,VWS V14.00,2013-02-06 00:07:00,
2013-02-05 17:12:00,35.7,27.9,30.13,NE,52,2.0,3.0,73,0.00,,SKC,0.00,VWS V14.00,2013-02-06 00:12:00,
2013-02-05 17:18:00,34.8,27.7,30.13,NE,52,0.0,3.0,75,0.00,,SKC,0.00,VWS V14.00,2013-02-06 00:18:00,
2013-02-05 17:23:00,34.3,27.5,30.13,NE,52,0.0,3.0,76,0.00,,SKC,0.00,VWS V14.00,2013-02-06 00:23:00,
2013-02-05 17:28:00,33.9,27.5,30.13,NE,52,2.0,3.0,77,0.00,,SKC,0.00,VWS V14.00,2013-02-06 00:28:00,
2013-02-05 17:34:00,33.5,27.4,30.13,NE,52,0.0,0.0,78,0.00,,SKC,0.00,VWS V14.00,2013-02-06 00:34:00,
2013-02-05 17:39:00,33.4,27.3,30.14,NE,52,0.0,0.0,78,0.00,,SKC,0.00,VWS V14.00,2013-02-06 00:39:00,
2013-02-05 17:44:00,33.1,27.3,30.14,NE,52,0.0,2.0,79,0.00,,SKC,0.00,VWS V14.00,2013-02-06 00:44:00,
2013-02-05 17:49:00,32.6,26.8,30.14,NE,52,1.0,2.0,79,0.00,,SKC,0.00,VWS V14.00,2013-02-06 00:49:00,
2013-02-05 17:55:00,32.1,26.6,30.14,NE,52,0.0,2.0,80,0.00,,SKC,0.00,VWS V14.00,2013-02-06 00:55:00,
2013-02-05 18:00:00,31.9,26.7,30.15,NE,52,2.0,3.0,81,0.00,,SKC,0.00,VWS V14.00,2013-02-06 01:00:00,
2013-02-05 18:05:00,31.8,26.6,30.14,NE,52,0.0,3.0,81,0.00,,SKC,0.00,VWS V14.00,2013-02-06 01:05:00,
2013-02-05 18:11:00,31.5,26.4,30.15,NE,52,0.0,3.0,81,0.00,,SKC,0.00,VWS V14.00,2013-02-06 01:11:00,
2013-02-05 18:16:00,31.3,26.5,30.15,NE,52,0.0,3.0,82,0.00,,SKC,0.00,VWS V14.00,2013-02-06 01:16:00,
2013-02-05 18:21:00,31.1,26.3,30.14,NE,52,0.0,3.0,82,0.00,,SKC,0.00,VWS V14.00,2013-02-06 01:21:00,
2013-02-05 18:26:00,31.0,26.5,30.14,NE,52,0.0,3.0,83,0.00,,SKC,0.00,VWS V14.00,2013-02-06 01:26:00,
2013-02-05 18:32:00,30.8,26.3,30.14,NE,52,0.0,3.0,83,0.00,,SKC,0.00,VWS V14.00,2013-02-06 01:32:00,
2013-02-05 18:37:00,30.7,26.2,30.15,NE,52,0.0,2.0,83,0.00,,SKC,0.00,VWS V14.00,2013-02-06 01:37:00,
2013-02-05 18:42:00,30.3,25.8,30.14,NE,52,2.0,3.0,83,0.00,,SKC,0.00,VWS V14.00,2013-02-06 01:42:00,
2013-02-05 18:48:00,29.9,25.7,30.14,NE,52,0.0,3.0,84,0.00,,SKC,0.00,VWS V14.00,2013-02-06 01:48:00,
2013-02-05 18:53:00,29.8,25.9,30.14,NE,52,2.0,3.0,85,0.00,,SKC,0.00,VWS V14.00,2013-02-06 01:53:00,
2013-02-05 18:58:00,29.9,25.7,30.14,NE,52,0.0,3.0,84,0.00,,SKC,0.00,VWS V14.00,2013-02-06 01:58:00,
2013-02-05 19:03:00,29.9,25.7,30.15,NE,52,0.0,0.0,84,0.00,,SKC,0.00,VWS V14.00,2013-02-06 02:03:00,
2013-02-05 19:09:00,29.8,25.9,30.14,NE,52,1.0,2.0,85,0.00,,SKC,0.00,VWS V14.00,2013-02-06 02:09:00,
2013-02-05 19:14:00,29.7,25.8,30.14,NE,52,0.0,2.0,85,0.00,,SKC,0.00,VWS V14.00,2013-02-06 02:14:00,
2013-02-05 19:19:00,29.4,25.5,30.14,NE,52,0.0,2.0,85,0.00,,SKC,0.00,VWS V14.00,2013-02-06 02:19:00,
2013-02-05 19:24:00,29.3,25.1,30.15,NE,52,0.0,2.0,84,0.00,,SKC,0.00,VWS V14.00,2013-02-06 02:24:00,
2013-02-05 19:30:00,29.2,25.3,30.14,NE,52,0.0,2.0,85,0.00,,SKC,0.00,VWS V14.00,2013-02-06 02:30:00,
2013-02-05 19:35:00,29.0,25.4,30.14,NE,52,0.0,0.0,86,0.00,,SKC,0.00,VWS V14.00,2013-02-06 02:35:00,
2013-02-05 19:40:00,28.7,25.0,30.14,NE,52,1.0,2.0,86,0.00,,SKC,0.00,VWS V14.00,2013-02-06 02:40:00,
2013-02-05 19:46:00,28.6,25.2,30.14,NE,52,0.0,3.0,87,0.00,,SKC,0.00,VWS V14.00,2013-02-06 02:46:00,
2013-02-05 19:51:00,28.5,24.9,30.14,NE,52,0.0,3.0,86,0.00,,SKC,0.00,VWS V14.00,2013-02-06 02:51:00,
2013-02-05 19:56:00,28.1,24.7,30.14,NE,52,0.0,3.0,87,0.00,,SKC,0.00,VWS V14.00,2013-02-06 02:56:00,
2013-02-05 20:01:00,27.8,24.4,30.14,NE,52,0.0,3.0,87,0.00,,SKC,0.00,VWS V14.00,2013-02-06 03:01:00,
2013-02-05 20:07:00,27.5,24.1,30.14,NE,52,0.0,2.0,87,0.00,,SKC,0.00,VWS V14.00,2013-02-06 03:07:00,
2013-02-05 20:12:00,27.4,24.3,30.15,NE,52,0.0,2.0,88,0.00,,SKC,0.00,VWS V14.00,2013-02-06 03:12:00,
2013-02-05 20:17:00,27.4,24.0,30.14,NE,52,0.0,2.0,87,0.00,,SKC,0.00,VWS V14.00,2013-02-06 03:17:00,
2013-02-05 20:23:00,27.2,23.9,30.14,NE,52,0.0,2.0,87,0.00,,SKC,0.00,VWS V14.00,2013-02-06 03:23:00,
2013-02-05 20:28:00,27.4,24.6,30.14,NE,52,0.0,2.0,89,0.00,,SKC,0.00,VWS V14.00,2013-02-06 03:28:00,
2013-02-05 20:33:00,27.4,24.3,30.14,NE,52,1.0,1.0,88,0.00,,SKC,0.00,VWS V14.00,2013-02-06 03:33:00,
2013-02-05 20:38:00,27.3,24.0,30.14,NE,52,0.0,3.0,87,0.00,,SKC,0.00,VWS V14.00,2013-02-06 03:38:00,
2013-02-05 20:44:00,27.2,24.1,30.14,NE,52,0.0,3.0,88,0.00,,SKC,0.00,VWS V14.00,2013-02-06 03:44:00,
2013-02-05 20:49:00,27.5,24.7,30.14,NE,52,0.0,3.0,89,0.00,,SKC,0.00,VWS V14.00,2013-02-06 03:49:00,
2013-02-05 20:54:00,27.7,24.9,30.14,NE,52,0.0,3.0,89,0.00,,SKC,0.00,VWS V14.00,2013-02-06 03:54:00,
2013-02-05 21:00:00,28.0,24.9,30.14,NE,52,0.0,3.0,88,0.00,,SKC,0.00,VWS V14.00,2013-02-06 04:00:00,
2013-02-05 21:05:00,28.1,25.0,30.14,NE,52,0.0,0.0,88,0.00,,SKC,0.00,VWS V14.00,2013-02-06 04:05:00,
2013-02-05 21:10:00,28.2,25.6,30.14,NE,52,0.0,2.0,90,0.00,,SKC,0.00,VWS V14.00,2013-02-06 04:10:00,
2013-02-05 21:15:00,28.2,25.1,30.14,NE,52,0.0,2.0,88,0.00,,SKC,0.00,VWS V14.00,2013-02-06 04:15:00,
2013-02-05 21:20:00,28.0,24.6,30.14,NE,52,0.0,2.0,87,0.00,,SKC,0.00,VWS V14.00,2013-02-06 04:20:00,
2013-02-05 21:26:00,28.1,25.3,30.14,NE,52,0.0,2.0,89,0.00,,SKC,0.00,VWS V14.00,2013-02-06 04:26:00,
2013-02-05 21:31:00,27.9,24.8,30.14,NE,52,0.0,2.0,88,0.00,,SKC,0.00,VWS V14.00,2013-02-06 04:31:00,
2013-02-05 21:36:00,27.8,24.4,30.14,NE,52,0.0,0.0,87,0.00,,SKC,0.00,VWS V14.00,2013-02-06 04:36:00,
2013-02-05 21:41:00,27.8,24.7,30.15,NE,52,0.0,0.0,88,0.00,,SKC,0.00,VWS V14.00,2013-02-06 04:41:00,
2013-02-05 21:47:00,27.8,25.0,30.14,NE,52,0.0,1.0,89,0.00,,SKC,0.00,VWS V14.00,2013-02-06 04:47:00,
2013-02-05 21:52:00,27.6,24.5,30.14,NE,52,0.0,1.0,88,0.00,,SKC,0.00,VWS V14.00,2013-02-06 04:52:00,
2013-02-05 21:57:00,27.3,24.2,30.14,NE,52,0.0,2.0,88,0.00,,SKC,0.00,VWS V14.00,2013-02-06 04:57:00,
2013-02-05 22:00:00,27.3,24.5,30.14,NE,52,0.0,2.0,89,0.00,,SKC,0.00,VWS V14.00,2013-02-06 05:00:00,
2013-02-05 22:02:00,27.4,24.9,30.14,NE,52,0.0,2.0,90,0.00,,SKC,0.00,VWS V14.00,2013-02-06 05:02:00,
2013-02-05 22:04:00,27.4,24.9,30.14,NE,52,0.0,0.0,90,0.00,,SKC,0.00,VWS V14.00,2013-02-06 05:04:00,
2013-02-05 22:09:00,27.4,24.6,30.14,NE,52,0.0,0.0,89,0.00,,SKC,0.00,VWS V14.00,2013-02-06 05:09:00,
2013-02-05 22:14:00,27.0,23.9,30.14,NE,52,0.0,0.0,88,0.00,,SKC,0.00,VWS V14.00,2013-02-06 05:14:00,
2013-02-05 22:19:00,26.6,23.8,30.14,NE,52,0.0,0.0,89,0.00,,SKC,0.00,VWS V14.00,2013-02-06 05:19:00,
2013-02-05 22:25:00,26.5,24.0,30.14,NE,52,0.0,0.0,90,0.00,,SKC,0.00,VWS V14.00,2013-02-06 05:25:00,
2013-02-05 22:30:00,26.4,23.9,30.14,NE,52,0.0,0.0,90,0.00,,SKC,0.00,VWS V14.00,2013-02-06 05:30:00,
2013-02-05 22:35:00,26.1,23.6,30.14,NE,52,1.0,1.0,90,0.00,,SKC,0.00,VWS V14.00,2013-02-06 05:35:00,
2013-02-05 22:40:00,25.9,23.6,30.14,NE,52,0.0,1.0,91,0.00,,SKC,0.00,VWS V14.00,2013-02-06 05:40:00,
2013-02-05 22:46:00,25.7,23.2,30.14,NE,52,0.0,1.0,90,0.00,,SKC,0.00,VWS V14.00,2013-02-06 05:46:00,
2013-02-05 22:51:00,25.5,23.2,30.14,NE,52,0.0,1.0,91,0.00,,SKC,0.00,VWS V14.00,2013-02-06 05:51:00,
2013-02-05 22:56:00,25.2,22.7,30.14,NE,52,0.0,1.0,90,0.00,,SKC,0.00,VWS V14.00,2013-02-06 05:56:00,
2013-02-05 23:01:00,24.7,22.2,30.14,NE,52,1.0,2.0,90,0.00,,SKC,0.00,VWS V14.00,2013-02-06 06:01:00,
2013-02-05 23:06:00,24.7,22.5,30.14,NE,52,2.0,2.0,91,0.00,,SKC,0.00,VWS V14.00,2013-02-06 06:06:00,
2013-02-05 23:12:00,24.6,22.4,30.14,NE,52,0.0,3.0,91,0.00,,SKC,0.00,VWS V14.00,2013-02-06 06:12:00,
2013-02-05 23:17:00,24.7,22.7,30.14,NE,52,0.0,3.0,92,0.00,,SKC,0.00,VWS V14.00,2013-02-06 06:17:00,
2013-02-05 23:22:00,24.6,22.4,30.13,NE,52,0.0,3.0,91,0.00,,SKC,0.00,VWS V14.00,2013-02-06 06:22:00,
2013-02-05 23:27:00,24.2,21.7,30.13,NE,52,0.0,3.0,90,0.00,,SKC,0.00,VWS V14.00,2013-02-06 06:27:00,
2013-02-05 23:33:00,24.0,21.8,30.13,NE,52,0.0,0.0,91,0.00,,SKC,0.00,VWS V14.00,2013-02-06 06:33:00,
2013-02-05 23:38:00,24.2,22.2,30.12,NE,52,0.0,2.0,92,0.00,,SKC,0.00,VWS V14.00,2013-02-06 06:38:00,
2013-02-05 23:43:00,24.1,21.9,30.13,NE,52,0.0,2.0,91,0.00,,SKC,0.00,VWS V14.00,2013-02-06 06:43:00,
2013-02-05 23:48:00,24.1,22.1,30.12,NE,52,1.0,2.0,92,0.00,,SKC,0.00,VWS V14.00,2013-02-06 06:48:00,
2013-02-05 23:53:00,24.1,21.6,30.12,North,10,0.0,3.0,90,0.00,,SKC,0.00,VWS V14.00,2013-02-06 06:53:00,
2013-02-05 23:59:00,23.7,21.2,30.11,NNE,32,0.0,3.0,90,0.00,,SKC,0.00,VWS V14.00,2013-02-06 06:59:00,